sensor_id;sensor_type;location;lat;lon;timestamp;temperature;humidity
30300;DHT22;17110;52.602;12.998;2023-04-15T00:01:19;8.40;99.90
30300;DHT22;17110;52.602;12.998;2023-04-15T00:03:45;8.50;99.90
30300;DHT22;17110;52.602;12.998;2023-04-15T00:06:14;8.40;99.90
30300;DHT22;17110;52.602;12.998;2023-04-15T00:08:40;8.40;99.90
30300;DHT22;17110;52.602;12.998;2023-04-15T00:11:06;8.40;99.90
30300;DHT22;17110;52.602;12.998;2023-04-15T00:13:32;8.40;99.90
30300;DHT22;17110;52.602;12.998;2023-04-15T00:15:59;8.50;99.90
30300;DHT22;17110;52.602;12.998;2023-04-15T00:18:25;8.50;99.90
30300;DHT22;17110;52.602;12.998;2023-04-15T00:20:51;8.50;99.90
30300;DHT22;17110;52.602;12.998;2023-04-15T00:23:18;8.50;99.90
30300;DHT22;17110;52.602;12.998;2023-04-15T00:25:43;8.50;99.90
30300;DHT22;17110;52.602;12.998;2023-04-15T00:28:09;8.40;99.90
30300;DHT22;17110;52.602;12.998;2023-04-15T00:30:35;8.40;99.90
30300;DHT22;17110;52.602;12.998;2023-04-15T00:33:01;8.40;99.90
30300;DHT22;17110;52.602;12.998;2023-04-15T00:35:28;8.50;99.90
30300;DHT22;17110;52.602;12.998;2023-04-15T00:37:53;8.50;99.90
30300;DHT22;17110;52.602;12.998;2023-04-15T00:40:20;8.50;99.90
30300;DHT22;17110;52.602;12.998;2023-04-15T00:42:49;8.50;99.90
30300;DHT22;17110;52.602;12.998;2023-04-15T00:45:15;8.40;99.90
30300;DHT22;17110;52.602;12.998;2023-04-15T00:47:42;8.50;99.90
30300;DHT22;17110;52.602;12.998;2023-04-15T00:50:08;8.60;99.90
30300;DHT22;17110;52.602;12.998;2023-04-15T00:52:34;8.50;99.90
30300;DHT22;17110;52.602;12.998;2023-04-15T00:55:00;8.60;99.90
30300;DHT22;17110;52.602;12.998;2023-04-15T00:57:27;8.60;99.90
30300;DHT22;17110;52.602;12.998;2023-04-15T00:59:54;8.50;99.90
30300;DHT22;17110;52.602;12.998;2023-04-15T01:02:21;8.60;99.90
30300;DHT22;17110;52.602;12.998;2023-04-15T01:04:46;8.60;99.90
30300;DHT22;17110;52.602;12.998;2023-04-15T01:07:12;8.60;99.90
30300;DHT22;17110;52.602;12.998;2023-04-15T01:09:39;8.60;99.90
30300;DHT22;17110;52.602;12.998;2023-04-15T01:12:05;8.60;99.90
30300;DHT22;17110;52.602;12.998;2023-04-15T01:14:32;8.50;99.90
30300;DHT22;17110;52.602;12.998;2023-04-15T01:16:58;8.50;99.90
30300;DHT22;17110;52.602;12.998;2023-04-15T01:19:24;8.60;99.90
30300;DHT22;17110;52.602;12.998;2023-04-15T01:21:49;8.60;99.90
30300;DHT22;17110;52.602;12.998;2023-04-15T01:24:17;8.60;99.90
30300;DHT22;17110;52.602;12.998;2023-04-15T01:26:43;8.60;99.90
30300;DHT22;17110;52.602;12.998;2023-04-15T01:29:09;8.60;99.90
30300;DHT22;17110;52.602;12.998;2023-04-15T01:31:34;8.50;99.90
30300;DHT22;17110;52.602;12.998;2023-04-15T01:34:00;8.50;99.90
30300;DHT22;17110;52.602;12.998;2023-04-15T01:36:26;8.50;99.90
30300;DHT22;17110;52.602;12.998;2023-04-15T01:38:53;8.50;99.90
30300;DHT22;17110;52.602;12.998;2023-04-15T01:41:26;8.50;99.90
30300;DHT22;17110;52.602;12.998;2023-04-15T01:43:52;8.50;99.90
30300;DHT22;17110;52.602;12.998;2023-04-15T01:46:18;8.50;99.90
30300;DHT22;17110;52.602;12.998;2023-04-15T01:48:44;8.40;99.90
30300;DHT22;17110;52.602;12.998;2023-04-15T01:51:10;8.50;99.90
30300;DHT22;17110;52.602;12.998;2023-04-15T01:53:35;8.60;99.90
30300;DHT22;17110;52.602;12.998;2023-04-15T01:56:01;8.60;99.90
30300;DHT22;17110;52.602;12.998;2023-04-15T01:58:27;8.50;99.90
30300;DHT22;17110;52.602;12.998;2023-04-15T02:00:53;8.50;99.90
30300;DHT22;17110;52.602;12.998;2023-04-15T02:03:18;8.60;99.90
30300;DHT22;17110;52.602;12.998;2023-04-15T02:05:44;8.50;99.90
30300;DHT22;17110;52.602;12.998;2023-04-15T02:08:09;8.50;99.90
30300;DHT22;17110;52.602;12.998;2023-04-15T02:10:35;8.50;99.90
30300;DHT22;17110;52.602;12.998;2023-04-15T02:13:01;8.50;99.90
30300;DHT22;17110;52.602;12.998;2023-04-15T02:15:26;8.50;99.90
30300;DHT22;17110;52.602;12.998;2023-04-15T02:17:52;8.50;99.90
30300;DHT22;17110;52.602;12.998;2023-04-15T02:20:20;8.50;99.90
30300;DHT22;17110;52.602;12.998;2023-04-15T02:22:46;8.40;99.90
30300;DHT22;17110;52.602;12.998;2023-04-15T02:25:12;8.40;99.90
30300;DHT22;17110;52.602;12.998;2023-04-15T02:27:38;8.50;99.90
30300;DHT22;17110;52.602;12.998;2023-04-15T02:30:04;8.50;99.90
30300;DHT22;17110;52.602;12.998;2023-04-15T02:32:31;8.50;99.90
30300;DHT22;17110;52.602;12.998;2023-04-15T02:35:01;8.50;99.90
30300;DHT22;17110;52.602;12.998;2023-04-15T02:37:27;8.50;99.90
30300;DHT22;17110;52.602;12.998;2023-04-15T02:39:54;8.60;99.90
30300;DHT22;17110;52.602;12.998;2023-04-15T02:42:20;8.50;99.90
30300;DHT22;17110;52.602;12.998;2023-04-15T02:44:46;8.60;99.90
30300;DHT22;17110;52.602;12.998;2023-04-15T02:47:11;8.70;99.90
30300;DHT22;17110;52.602;12.998;2023-04-15T02:49:37;8.50;99.90
30300;DHT22;17110;52.602;12.998;2023-04-15T02:52:03;8.50;99.90
30300;DHT22;17110;52.602;12.998;2023-04-15T02:54:28;8.50;99.90
30300;DHT22;17110;52.602;12.998;2023-04-15T02:56:54;8.60;99.90
30300;DHT22;17110;52.602;12.998;2023-04-15T02:59:21;8.50;99.90
30300;DHT22;17110;52.602;12.998;2023-04-15T03:01:46;8.50;99.90
30300;DHT22;17110;52.602;12.998;2023-04-15T03:04:12;8.50;99.90
30300;DHT22;17110;52.602;12.998;2023-04-15T03:06:38;8.50;99.90
30300;DHT22;17110;52.602;12.998;2023-04-15T03:09:04;8.60;99.90
30300;DHT22;17110;52.602;12.998;2023-04-15T03:11:32;8.50;99.90
30300;DHT22;17110;52.602;12.998;2023-04-15T03:13:57;8.40;99.90
30300;DHT22;17110;52.602;12.998;2023-04-15T03:16:24;8.50;99.90
30300;DHT22;17110;52.602;12.998;2023-04-15T03:18:50;8.40;99.90
30300;DHT22;17110;52.602;12.998;2023-04-15T03:21:15;8.40;99.90
30300;DHT22;17110;52.602;12.998;2023-04-15T03:23:41;8.40;99.90
30300;DHT22;17110;52.602;12.998;2023-04-15T03:26:06;8.40;99.90
30300;DHT22;17110;52.602;12.998;2023-04-15T03:28:32;8.50;99.90
30300;DHT22;17110;52.602;12.998;2023-04-15T03:30:58;8.50;99.90
30300;DHT22;17110;52.602;12.998;2023-04-15T03:33:24;8.50;99.90
30300;DHT22;17110;52.602;12.998;2023-04-15T03:35:50;8.50;99.90
30300;DHT22;17110;52.602;12.998;2023-04-15T03:38:16;8.50;99.90
30300;DHT22;17110;52.602;12.998;2023-04-15T03:40:42;8.50;99.90
30300;DHT22;17110;52.602;12.998;2023-04-15T03:43:08;8.60;99.90
30300;DHT22;17110;52.602;12.998;2023-04-15T03:45:33;8.60;99.90
30300;DHT22;17110;52.602;12.998;2023-04-15T03:48:00;8.60;99.90
30300;DHT22;17110;52.602;12.998;2023-04-15T03:50:25;8.60;99.90
30300;DHT22;17110;52.602;12.998;2023-04-15T03:52:52;8.70;99.90
30300;DHT22;17110;52.602;12.998;2023-04-15T03:55:17;8.70;99.90
30300;DHT22;17110;52.602;12.998;2023-04-15T03:57:44;8.60;99.90
30300;DHT22;17110;52.602;12.998;2023-04-15T04:00:10;8.60;99.90
30300;DHT22;17110;52.602;12.998;2023-04-15T04:02:35;8.60;99.90
30300;DHT22;17110;52.602;12.998;2023-04-15T04:05:01;8.60;99.90
30300;DHT22;17110;52.602;12.998;2023-04-15T04:07:26;8.50;99.90
30300;DHT22;17110;52.602;12.998;2023-04-15T04:09:52;8.60;99.90
30300;DHT22;17110;52.602;12.998;2023-04-15T04:12:18;8.60;99.90
30300;DHT22;17110;52.602;12.998;2023-04-15T04:14:43;8.60;99.90
30300;DHT22;17110;52.602;12.998;2023-04-15T04:17:09;8.60;99.90
30300;DHT22;17110;52.602;12.998;2023-04-15T04:19:34;8.60;99.90
30300;DHT22;17110;52.602;12.998;2023-04-15T04:22:00;8.50;99.90
30300;DHT22;17110;52.602;12.998;2023-04-15T04:24:26;8.60;99.90
30300;DHT22;17110;52.602;12.998;2023-04-15T04:26:51;8.60;99.90
30300;DHT22;17110;52.602;12.998;2023-04-15T04:29:17;8.60;99.90
30300;DHT22;17110;52.602;12.998;2023-04-15T04:31:42;8.60;99.90
30300;DHT22;17110;52.602;12.998;2023-04-15T04:34:08;8.60;99.90
30300;DHT22;17110;52.602;12.998;2023-04-15T04:36:33;8.60;99.90
30300;DHT22;17110;52.602;12.998;2023-04-15T04:38:59;8.70;99.90
30300;DHT22;17110;52.602;12.998;2023-04-15T04:41:25;8.80;99.90
30300;DHT22;17110;52.602;12.998;2023-04-15T04:43:51;8.70;99.90
30300;DHT22;17110;52.602;12.998;2023-04-15T04:46:16;8.80;99.90
30300;DHT22;17110;52.602;12.998;2023-04-15T04:48:42;8.70;99.90
30300;DHT22;17110;52.602;12.998;2023-04-15T04:51:07;8.80;99.90
30300;DHT22;17110;52.602;12.998;2023-04-15T04:53:33;8.80;99.90
30300;DHT22;17110;52.602;12.998;2023-04-15T04:55:59;8.70;99.90
30300;DHT22;17110;52.602;12.998;2023-04-15T04:58:25;8.70;99.90
30300;DHT22;17110;52.602;12.998;2023-04-15T05:00:50;8.80;99.90
30300;DHT22;17110;52.602;12.998;2023-04-15T05:03:18;8.70;99.90
30300;DHT22;17110;52.602;12.998;2023-04-15T05:05:44;8.80;99.90
30300;DHT22;17110;52.602;12.998;2023-04-15T05:08:10;8.90;99.90
30300;DHT22;17110;52.602;12.998;2023-04-15T05:10:35;8.90;99.90
30300;DHT22;17110;52.602;12.998;2023-04-15T05:13:01;8.80;99.90
30300;DHT22;17110;52.602;12.998;2023-04-15T05:15:26;8.80;99.90
30300;DHT22;17110;52.602;12.998;2023-04-15T05:17:52;8.80;99.90
30300;DHT22;17110;52.602;12.998;2023-04-15T05:20:18;8.80;99.90
30300;DHT22;17110;52.602;12.998;2023-04-15T05:22:49;8.80;99.90
30300;DHT22;17110;52.602;12.998;2023-04-15T05:25:15;8.80;99.90
30300;DHT22;17110;52.602;12.998;2023-04-15T05:27:40;8.80;99.90
30300;DHT22;17110;52.602;12.998;2023-04-15T05:30:06;8.90;99.90
30300;DHT22;17110;52.602;12.998;2023-04-15T05:32:33;9.00;99.90
30300;DHT22;17110;52.602;12.998;2023-04-15T05:34:58;8.90;99.90
30300;DHT22;17110;52.602;12.998;2023-04-15T05:37:24;8.80;99.90
30300;DHT22;17110;52.602;12.998;2023-04-15T05:39:50;8.80;99.90
30300;DHT22;17110;52.602;12.998;2023-04-15T05:42:16;8.80;99.90
30300;DHT22;17110;52.602;12.998;2023-04-15T05:44:41;8.90;99.90
30300;DHT22;17110;52.602;12.998;2023-04-15T05:47:07;9.00;99.90
30300;DHT22;17110;52.602;12.998;2023-04-15T05:49:34;9.00;99.90
30300;DHT22;17110;52.602;12.998;2023-04-15T05:52:00;9.00;99.90
30300;DHT22;17110;52.602;12.998;2023-04-15T05:54:25;9.00;99.90
30300;DHT22;17110;52.602;12.998;2023-04-15T05:56:52;9.00;99.90
30300;DHT22;17110;52.602;12.998;2023-04-15T05:59:18;9.10;99.90
30300;DHT22;17110;52.602;12.998;2023-04-15T06:01:44;9.10;99.90
30300;DHT22;17110;52.602;12.998;2023-04-15T06:04:09;9.10;99.90
30300;DHT22;17110;52.602;12.998;2023-04-15T06:06:35;9.00;99.90
30300;DHT22;17110;52.602;12.998;2023-04-15T06:09:01;9.10;99.90
30300;DHT22;17110;52.602;12.998;2023-04-15T06:11:27;9.20;99.90
30300;DHT22;17110;52.602;12.998;2023-04-15T06:13:52;9.20;99.90
30300;DHT22;17110;52.602;12.998;2023-04-15T06:16:18;9.40;99.90
30300;DHT22;17110;52.602;12.998;2023-04-15T06:18:43;9.50;99.90
30300;DHT22;17110;52.602;12.998;2023-04-15T06:21:09;9.60;99.90
30300;DHT22;17110;52.602;12.998;2023-04-15T06:23:35;9.70;99.90
30300;DHT22;17110;52.602;12.998;2023-04-15T06:26:01;9.60;99.90
30300;DHT22;17110;52.602;12.998;2023-04-15T06:28:27;9.60;99.90
30300;DHT22;17110;52.602;12.998;2023-04-15T06:30:53;9.70;99.90
30300;DHT22;17110;52.602;12.998;2023-04-15T06:33:19;9.80;99.90
30300;DHT22;17110;52.602;12.998;2023-04-15T06:35:45;10.00;99.90
30300;DHT22;17110;52.602;12.998;2023-04-15T06:38:10;10.10;99.90
30300;DHT22;17110;52.602;12.998;2023-04-15T06:40:36;10.30;99.90
30300;DHT22;17110;52.602;12.998;2023-04-15T06:43:01;10.30;99.90
30300;DHT22;17110;52.602;12.998;2023-04-15T06:45:29;10.30;99.90
30300;DHT22;17110;52.602;12.998;2023-04-15T06:47:54;10.30;99.90
30300;DHT22;17110;52.602;12.998;2023-04-15T06:50:20;10.20;99.90
30300;DHT22;17110;52.602;12.998;2023-04-15T06:52:45;10.20;99.90
30300;DHT22;17110;52.602;12.998;2023-04-15T06:55:11;10.30;99.90
30300;DHT22;17110;52.602;12.998;2023-04-15T06:57:36;10.50;99.90
30300;DHT22;17110;52.602;12.998;2023-04-15T07:00:02;10.60;99.90
30300;DHT22;17110;52.602;12.998;2023-04-15T07:02:30;10.60;99.90
30300;DHT22;17110;52.602;12.998;2023-04-15T07:04:55;10.70;99.90
30300;DHT22;17110;52.602;12.998;2023-04-15T07:07:21;11.00;99.90
30300;DHT22;17110;52.602;12.998;2023-04-15T07:09:46;10.80;99.90
30300;DHT22;17110;52.602;12.998;2023-04-15T07:12:12;10.70;99.90
30300;DHT22;17110;52.602;12.998;2023-04-15T07:14:38;11.00;99.90
30300;DHT22;17110;52.602;12.998;2023-04-15T07:17:03;11.10;99.90
30300;DHT22;17110;52.602;12.998;2023-04-15T07:19:29;11.30;99.90
30300;DHT22;17110;52.602;12.998;2023-04-15T07:21:54;11.70;99.90
30300;DHT22;17110;52.602;12.998;2023-04-15T07:24:20;12.00;99.90
30300;DHT22;17110;52.602;12.998;2023-04-15T07:26:47;12.20;99.90
30300;DHT22;17110;52.602;12.998;2023-04-15T07:29:13;12.10;99.90
30300;DHT22;17110;52.602;12.998;2023-04-15T07:31:39;11.80;99.90
30300;DHT22;17110;52.602;12.998;2023-04-15T07:34:06;11.60;99.90
30300;DHT22;17110;52.602;12.998;2023-04-15T07:36:32;11.30;99.90
30300;DHT22;17110;52.602;12.998;2023-04-15T07:38:58;11.30;99.90
30300;DHT22;17110;52.602;12.998;2023-04-15T07:41:23;11.10;99.90
30300;DHT22;17110;52.602;12.998;2023-04-15T07:43:50;10.90;99.90
30300;DHT22;17110;52.602;12.998;2023-04-15T07:46:15;10.80;99.90
30300;DHT22;17110;52.602;12.998;2023-04-15T07:48:41;11.00;99.90
30300;DHT22;17110;52.602;12.998;2023-04-15T07:51:07;11.10;99.90
30300;DHT22;17110;52.602;12.998;2023-04-15T07:53:34;11.10;99.90
30300;DHT22;17110;52.602;12.998;2023-04-15T07:56:01;11.10;99.90
30300;DHT22;17110;52.602;12.998;2023-04-15T07:58:26;11.10;99.90
30300;DHT22;17110;52.602;12.998;2023-04-15T08:00:52;11.10;99.90
30300;DHT22;17110;52.602;12.998;2023-04-15T08:03:20;10.80;99.90
30300;DHT22;17110;52.602;12.998;2023-04-15T08:05:49;10.80;99.90
30300;DHT22;17110;52.602;12.998;2023-04-15T08:08:15;10.90;99.90
30300;DHT22;17110;52.602;12.998;2023-04-15T08:10:41;10.80;99.90
30300;DHT22;17110;52.602;12.998;2023-04-15T08:13:06;10.70;99.90
30300;DHT22;17110;52.602;12.998;2023-04-15T08:15:32;10.80;99.90
30300;DHT22;17110;52.602;12.998;2023-04-15T08:17:57;10.80;99.90
30300;DHT22;17110;52.602;12.998;2023-04-15T08:20:25;10.60;99.90
30300;DHT22;17110;52.602;12.998;2023-04-15T08:22:50;10.70;99.90
30300;DHT22;17110;52.602;12.998;2023-04-15T08:25:17;11.00;99.90
30300;DHT22;17110;52.602;12.998;2023-04-15T08:27:44;11.10;99.90
30300;DHT22;17110;52.602;12.998;2023-04-15T08:30:10;11.00;99.90
30300;DHT22;17110;52.602;12.998;2023-04-15T08:32:36;11.20;99.90
30300;DHT22;17110;52.602;12.998;2023-04-15T08:35:03;11.10;99.90
30300;DHT22;17110;52.602;12.998;2023-04-15T08:37:29;11.20;99.90
30300;DHT22;17110;52.602;12.998;2023-04-15T08:39:54;11.30;99.90
30300;DHT22;17110;52.602;12.998;2023-04-15T08:42:26;11.50;99.90
30300;DHT22;17110;52.602;12.998;2023-04-15T08:44:52;11.40;99.90
30300;DHT22;17110;52.602;12.998;2023-04-15T08:47:20;11.50;99.90
30300;DHT22;17110;52.602;12.998;2023-04-15T08:49:49;11.20;99.90
30300;DHT22;17110;52.602;12.998;2023-04-15T08:52:18;11.00;99.90
30300;DHT22;17110;52.602;12.998;2023-04-15T08:54:44;10.90;99.90
30300;DHT22;17110;52.602;12.998;2023-04-15T08:57:11;10.80;99.90
30300;DHT22;17110;52.602;12.998;2023-04-15T08:59:37;11.00;99.90
30300;DHT22;17110;52.602;12.998;2023-04-15T09:02:03;11.00;99.90
30300;DHT22;17110;52.602;12.998;2023-04-15T09:04:30;11.10;99.90
30300;DHT22;17110;52.602;12.998;2023-04-15T09:06:56;11.00;99.90
30300;DHT22;17110;52.602;12.998;2023-04-15T09:09:22;11.20;99.90
30300;DHT22;17110;52.602;12.998;2023-04-15T09:11:48;11.10;99.90
30300;DHT22;17110;52.602;12.998;2023-04-15T09:14:15;10.90;99.90
30300;DHT22;17110;52.602;12.998;2023-04-15T09:17:01;11.00;99.90
30300;DHT22;17110;52.602;12.998;2023-04-15T09:19:27;11.10;99.90
30300;DHT22;17110;52.602;12.998;2023-04-15T09:21:54;11.30;99.90
30300;DHT22;17110;52.602;12.998;2023-04-15T09:24:24;11.30;99.90
30300;DHT22;17110;52.602;12.998;2023-04-15T09:26:52;11.50;99.90
30300;DHT22;17110;52.602;12.998;2023-04-15T09:29:23;11.50;99.90
30300;DHT22;17110;52.602;12.998;2023-04-15T09:31:49;11.60;99.90
30300;DHT22;17110;52.602;12.998;2023-04-15T09:34:15;11.60;99.90
30300;DHT22;17110;52.602;12.998;2023-04-15T09:39:13;11.60;99.90
30300;DHT22;17110;52.602;12.998;2023-04-15T09:41:43;11.70;99.90
30300;DHT22;17110;52.602;12.998;2023-04-15T09:44:23;11.70;99.90
30300;DHT22;17110;52.602;12.998;2023-04-15T09:46:49;11.70;99.90
30300;DHT22;17110;52.602;12.998;2023-04-15T09:49:15;11.60;99.90
30300;DHT22;17110;52.602;12.998;2023-04-15T09:51:42;11.40;99.90
30300;DHT22;17110;52.602;12.998;2023-04-15T09:54:08;11.50;99.90
30300;DHT22;17110;52.602;12.998;2023-04-15T09:56:35;11.40;99.90
30300;DHT22;17110;52.602;12.998;2023-04-15T09:59:04;11.40;99.90
30300;DHT22;17110;52.602;12.998;2023-04-15T10:01:30;11.40;99.90
30300;DHT22;17110;52.602;12.998;2023-04-15T10:03:57;11.30;99.90
30300;DHT22;17110;52.602;12.998;2023-04-15T10:06:25;11.40;99.90
30300;DHT22;17110;52.602;12.998;2023-04-15T10:08:51;11.40;99.90
30300;DHT22;17110;52.602;12.998;2023-04-15T10:11:18;11.50;99.90
30300;DHT22;17110;52.602;12.998;2023-04-15T10:13:45;11.40;99.90
30300;DHT22;17110;52.602;12.998;2023-04-15T10:16:15;11.30;99.90
30300;DHT22;17110;52.602;12.998;2023-04-15T10:18:46;11.30;99.90
30300;DHT22;17110;52.602;12.998;2023-04-15T10:21:13;11.40;99.90
30300;DHT22;17110;52.602;12.998;2023-04-15T10:23:44;11.30;99.90
30300;DHT22;17110;52.602;12.998;2023-04-15T10:26:11;11.30;99.90
30300;DHT22;17110;52.602;12.998;2023-04-15T10:28:39;11.30;99.90
30300;DHT22;17110;52.602;12.998;2023-04-15T10:31:05;11.40;99.90
30300;DHT22;17110;52.602;12.998;2023-04-15T10:33:31;11.40;99.90
30300;DHT22;17110;52.602;12.998;2023-04-15T10:35:58;11.50;99.90
30300;DHT22;17110;52.602;12.998;2023-04-15T10:38:33;11.50;99.90
30300;DHT22;17110;52.602;12.998;2023-04-15T10:41:26;11.60;99.90
30300;DHT22;17110;52.602;12.998;2023-04-15T10:44:04;11.40;99.90
30300;DHT22;17110;52.602;12.998;2023-04-15T10:46:40;11.40;99.90
30300;DHT22;17110;52.602;12.998;2023-04-15T10:49:22;11.30;99.90
30300;DHT22;17110;52.602;12.998;2023-04-15T10:51:56;11.50;99.90
30300;DHT22;17110;52.602;12.998;2023-04-15T10:57:05;11.60;99.90
30300;DHT22;17110;52.602;12.998;2023-04-15T10:59:32;11.60;99.90
30300;DHT22;17110;52.602;12.998;2023-04-15T11:02:04;11.50;99.90
30300;DHT22;17110;52.602;12.998;2023-04-15T11:04:52;11.50;99.90
30300;DHT22;17110;52.602;12.998;2023-04-15T11:12:59;11.40;99.90
30300;DHT22;17110;52.602;12.998;2023-04-15T11:17:52;11.40;99.90
30300;DHT22;17110;52.602;12.998;2023-04-15T11:20:17;11.60;99.90
30300;DHT22;17110;52.602;12.998;2023-04-15T11:22:48;11.70;99.90
30300;DHT22;17110;52.602;12.998;2023-04-15T11:25:34;11.70;99.90
30300;DHT22;17110;52.602;12.998;2023-04-15T11:28:05;11.70;99.90
30300;DHT22;17110;52.602;12.998;2023-04-15T11:30:36;11.70;99.90
30300;DHT22;17110;52.602;12.998;2023-04-15T11:33:08;11.60;99.90
30300;DHT22;17110;52.602;12.998;2023-04-15T11:35:41;11.60;99.90
30300;DHT22;17110;52.602;12.998;2023-04-15T11:38:19;11.50;99.90
30300;DHT22;17110;52.602;12.998;2023-04-15T11:40:46;11.50;99.90
30300;DHT22;17110;52.602;12.998;2023-04-15T11:43:15;11.50;99.90
30300;DHT22;17110;52.602;12.998;2023-04-15T11:45:58;11.40;99.90
30300;DHT22;17110;52.602;12.998;2023-04-15T11:48:29;11.40;99.90
30300;DHT22;17110;52.602;12.998;2023-04-15T11:50:57;11.40;99.90
30300;DHT22;17110;52.602;12.998;2023-04-15T11:56:03;11.20;99.90
30300;DHT22;17110;52.602;12.998;2023-04-15T11:58:29;11.30;99.90
30300;DHT22;17110;52.602;12.998;2023-04-15T12:01:01;11.40;99.90
30300;DHT22;17110;52.602;12.998;2023-04-15T12:03:39;11.40;99.90
30300;DHT22;17110;52.602;12.998;2023-04-15T12:06:08;11.50;99.90
30300;DHT22;17110;52.602;12.998;2023-04-15T12:11:27;11.30;99.90
30300;DHT22;17110;52.602;12.998;2023-04-15T12:14:05;11.30;99.90
30300;DHT22;17110;52.602;12.998;2023-04-15T12:16:36;11.30;99.90
30300;DHT22;17110;52.602;12.998;2023-04-15T12:19:10;11.30;99.90
30300;DHT22;17110;52.602;12.998;2023-04-15T12:21:38;11.30;99.90
30300;DHT22;17110;52.602;12.998;2023-04-15T12:24:06;11.30;99.90
30300;DHT22;17110;52.602;12.998;2023-04-15T12:26:55;11.40;99.90
30300;DHT22;17110;52.602;12.998;2023-04-15T12:29:27;11.30;99.90
30300;DHT22;17110;52.602;12.998;2023-04-15T12:31:58;11.10;99.90
30300;DHT22;17110;52.602;12.998;2023-04-15T12:34:30;11.10;99.90
30300;DHT22;17110;52.602;12.998;2023-04-15T12:37:01;11.10;99.90
30300;DHT22;17110;52.602;12.998;2023-04-15T12:39:30;11.20;99.90
30300;DHT22;17110;52.602;12.998;2023-04-15T12:41:58;11.10;99.90
30300;DHT22;17110;52.602;12.998;2023-04-15T12:44:24;11.10;99.90
30300;DHT22;17110;52.602;12.998;2023-04-15T12:46:52;11.00;99.90
30300;DHT22;17110;52.602;12.998;2023-04-15T12:49:18;11.10;99.90
30300;DHT22;17110;52.602;12.998;2023-04-15T12:51:50;11.20;99.90
30300;DHT22;17110;52.602;12.998;2023-04-15T12:54:16;11.20;99.90
30300;DHT22;17110;52.602;12.998;2023-04-15T12:56:46;11.20;99.90
30300;DHT22;17110;52.602;12.998;2023-04-15T12:59:13;11.20;99.90
30300;DHT22;17110;52.602;12.998;2023-04-15T13:01:39;11.30;99.90
30300;DHT22;17110;52.602;12.998;2023-04-15T13:04:06;11.20;99.90
30300;DHT22;17110;52.602;12.998;2023-04-15T13:06:32;11.30;99.90
30300;DHT22;17110;52.602;12.998;2023-04-15T13:08:58;11.30;99.90
30300;DHT22;17110;52.602;12.998;2023-04-15T13:11:27;11.40;99.90
30300;DHT22;17110;52.602;12.998;2023-04-15T13:14:06;11.20;99.90
30300;DHT22;17110;52.602;12.998;2023-04-15T13:16:33;11.40;99.90
30300;DHT22;17110;52.602;12.998;2023-04-15T13:19:02;11.60;99.90
30300;DHT22;17110;52.602;12.998;2023-04-15T13:21:29;11.60;99.90
30300;DHT22;17110;52.602;12.998;2023-04-15T13:23:55;11.60;99.90
30300;DHT22;17110;52.602;12.998;2023-04-15T13:26:22;11.60;99.90
30300;DHT22;17110;52.602;12.998;2023-04-15T13:28:49;11.50;99.90
30300;DHT22;17110;52.602;12.998;2023-04-15T13:31:14;11.40;99.90
30300;DHT22;17110;52.602;12.998;2023-04-15T13:33:43;11.40;99.90
30300;DHT22;17110;52.602;12.998;2023-04-15T13:36:09;11.40;99.90
30300;DHT22;17110;52.602;12.998;2023-04-15T13:38:34;11.30;99.90
30300;DHT22;17110;52.602;12.998;2023-04-15T13:41:00;11.40;99.90
30300;DHT22;17110;52.602;12.998;2023-04-15T13:43:25;11.50;99.90
30300;DHT22;17110;52.602;12.998;2023-04-15T13:45:51;11.50;99.90
30300;DHT22;17110;52.602;12.998;2023-04-15T13:48:16;11.60;99.90
30300;DHT22;17110;52.602;12.998;2023-04-15T13:50:42;11.60;99.90
30300;DHT22;17110;52.602;12.998;2023-04-15T13:53:12;11.60;99.90
30300;DHT22;17110;52.602;12.998;2023-04-15T13:55:38;11.50;99.90
30300;DHT22;17110;52.602;12.998;2023-04-15T13:58:06;11.60;99.90
30300;DHT22;17110;52.602;12.998;2023-04-15T14:00:32;11.60;99.90
30300;DHT22;17110;52.602;12.998;2023-04-15T14:02:58;11.70;99.90
30300;DHT22;17110;52.602;12.998;2023-04-15T14:05:23;11.60;99.90
30300;DHT22;17110;52.602;12.998;2023-04-15T14:07:50;11.60;99.90
30300;DHT22;17110;52.602;12.998;2023-04-15T14:10:15;11.50;99.90
30300;DHT22;17110;52.602;12.998;2023-04-15T14:12:41;11.30;99.90
30300;DHT22;17110;52.602;12.998;2023-04-15T14:15:07;11.30;99.90
30300;DHT22;17110;52.602;12.998;2023-04-15T14:17:32;11.50;99.90
30300;DHT22;17110;52.602;12.998;2023-04-15T14:19:58;11.50;99.90
